sensor_id;sensor_type;location;lat;lon;timestamp;P1;durP1;ratioP1;P2;durP2;ratioP2
13222;SDS011;6676;45.192;5.722;2022-08-19T00:00:07;2.52;;;2.08;;
13222;SDS011;6676;45.192;5.722;2022-08-19T00:03:02;2.12;;;1.85;;
13222;SDS011;6676;45.192;5.722;2022-08-19T00:05:54;3.75;;;1.65;;
13222;SDS011;6676;45.192;5.722;2022-08-19T00:08:47;2.22;;;1.62;;
13222;SDS011;6676;45.192;5.722;2022-08-19T00:11:39;1.82;;;1.60;;
13222;SDS011;6676;45.192;5.722;2022-08-19T00:14:35;1.60;;;1.30;;
13222;SDS011;6676;45.192;5.722;2022-08-19T00:17:33;2.37;;;2.17;;
13222;SDS011;6676;45.192;5.722;2022-08-19T00:23:04;1.98;;;1.60;;
13222;SDS011;6676;45.192;5.722;2022-08-19T00:25:55;2.30;;;1.90;;
13222;SDS011;6676;45.192;5.722;2022-08-19T00:29:08;1.32;;;1.20;;
13222;SDS011;6676;45.192;5.722;2022-08-19T00:32:00;1.90;;;1.22;;
13222;SDS011;6676;45.192;5.722;2022-08-19T00:37:30;1.77;;;1.12;;
13222;SDS011;6676;45.192;5.722;2022-08-19T00:43:07;1.65;;;1.30;;
13222;SDS011;6676;45.192;5.722;2022-08-19T00:46:01;1.15;;;0.90;;
13222;SDS011;6676;45.192;5.722;2022-08-19T00:48:59;1.30;;;1.20;;
13222;SDS011;6676;45.192;5.722;2022-08-19T00:51:54;1.40;;;1.10;;
13222;SDS011;6676;45.192;5.722;2022-08-19T00:54:48;1.30;;;1.10;;
13222;SDS011;6676;45.192;5.722;2022-08-19T00:57:30;2.50;;;1.30;;
13222;SDS011;6676;45.192;5.722;2022-08-19T01:03:01;1.52;;;1.30;;
13222;SDS011;6676;45.192;5.722;2022-08-19T01:05:53;2.22;;;1.27;;
13222;SDS011;6676;45.192;5.722;2022-08-19T01:08:45;3.55;;;1.60;;
13222;SDS011;6676;45.192;5.722;2022-08-19T01:11:40;2.05;;;1.40;;
13222;SDS011;6676;45.192;5.722;2022-08-19T01:14:32;2.47;;;1.12;;
13222;SDS011;6676;45.192;5.722;2022-08-19T01:17:24;2.77;;;1.40;;
13222;SDS011;6676;45.192;5.722;2022-08-19T01:20:17;2.42;;;1.37;;
13222;SDS011;6676;45.192;5.722;2022-08-19T01:23:10;1.95;;;1.45;;
13222;SDS011;6676;45.192;5.722;2022-08-19T01:26:04;1.40;;;1.30;;
13222;SDS011;6676;45.192;5.722;2022-08-19T01:28:55;1.50;;;1.40;;
13222;SDS011;6676;45.192;5.722;2022-08-19T01:31:50;2.30;;;1.90;;
13222;SDS011;6676;45.192;5.722;2022-08-19T01:34:41;2.33;;;2.08;;
13222;SDS011;6676;45.192;5.722;2022-08-19T01:37:43;4.25;;;2.17;;
13222;SDS011;6676;45.192;5.722;2022-08-19T01:40:37;2.42;;;1.90;;
13222;SDS011;6676;45.192;5.722;2022-08-19T01:43:31;2.27;;;1.70;;
13222;SDS011;6676;45.192;5.722;2022-08-19T01:46:22;2.40;;;1.65;;
13222;SDS011;6676;45.192;5.722;2022-08-19T01:49:14;2.42;;;2.22;;
13222;SDS011;6676;45.192;5.722;2022-08-19T01:52:07;2.45;;;2.22;;
13222;SDS011;6676;45.192;5.722;2022-08-19T01:54:58;2.30;;;2.10;;
13222;SDS011;6676;45.192;5.722;2022-08-19T01:57:51;3.42;;;2.58;;
13222;SDS011;6676;45.192;5.722;2022-08-19T02:03:23;2.90;;;2.60;;
13222;SDS011;6676;45.192;5.722;2022-08-19T02:06:14;3.12;;;2.90;;
13222;SDS011;6676;45.192;5.722;2022-08-19T02:09:09;3.12;;;2.83;;
13222;SDS011;6676;45.192;5.722;2022-08-19T02:11:50;3.92;;;2.58;;
13222;SDS011;6676;45.192;5.722;2022-08-19T02:14:56;3.05;;;2.02;;
13222;SDS011;6676;45.192;5.722;2022-08-19T02:17:48;2.30;;;2.10;;
13222;SDS011;6676;45.192;5.722;2022-08-19T02:20:40;2.58;;;1.92;;
13222;SDS011;6676;45.192;5.722;2022-08-19T02:23:33;2.45;;;1.67;;
13222;SDS011;6676;45.192;5.722;2022-08-19T02:26:25;2.33;;;2.12;;
13222;SDS011;6676;45.192;5.722;2022-08-19T02:29:17;3.55;;;2.90;;
13222;SDS011;6676;45.192;5.722;2022-08-19T02:32:08;3.05;;;2.75;;
13222;SDS011;6676;45.192;5.722;2022-08-19T02:34:59;1.80;;;1.47;;
13222;SDS011;6676;45.192;5.722;2022-08-19T02:37:53;2.08;;;1.87;;
13222;SDS011;6676;45.192;5.722;2022-08-19T02:41:03;1.80;;;1.70;;
13222;SDS011;6676;45.192;5.722;2022-08-19T02:44:02;2.30;;;1.75;;
13222;SDS011;6676;45.192;5.722;2022-08-19T02:49:35;2.25;;;1.30;;
13222;SDS011;6676;45.192;5.722;2022-08-19T02:52:27;2.87;;;1.62;;
13222;SDS011;6676;45.192;5.722;2022-08-19T02:57:57;1.95;;;1.85;;
13222;SDS011;6676;45.192;5.722;2022-08-19T03:00:49;1.92;;;1.80;;
13222;SDS011;6676;45.192;5.722;2022-08-19T03:03:37;2.85;;;2.55;;
13222;SDS011;6676;45.192;5.722;2022-08-19T03:06:28;2.25;;;1.80;;
13222;SDS011;6676;45.192;5.722;2022-08-19T03:09:20;2.58;;;1.80;;
13222;SDS011;6676;45.192;5.722;2022-08-19T03:12:11;2.45;;;2.25;;
13222;SDS011;6676;45.192;5.722;2022-08-19T03:15:03;3.75;;;2.10;;
13222;SDS011;6676;45.192;5.722;2022-08-19T03:17:44;2.17;;;1.62;;
13222;SDS011;6676;45.192;5.722;2022-08-19T03:20:40;1.95;;;1.75;;
13222;SDS011;6676;45.192;5.722;2022-08-19T03:23:32;2.40;;;2.20;;
13222;SDS011;6676;45.192;5.722;2022-08-19T03:26:24;4.03;;;2.10;;
13222;SDS011;6676;45.192;5.722;2022-08-19T03:29:15;2.08;;;1.70;;
13222;SDS011;6676;45.192;5.722;2022-08-19T03:32:09;2.50;;;1.82;;
13222;SDS011;6676;45.192;5.722;2022-08-19T03:35:03;4.47;;;2.00;;
13222;SDS011;6676;45.192;5.722;2022-08-19T03:37:43;1.95;;;1.65;;
13222;SDS011;6676;45.192;5.722;2022-08-19T03:40:36;2.12;;;1.65;;
13222;SDS011;6676;45.192;5.722;2022-08-19T03:43:27;2.35;;;1.70;;
13222;SDS011;6676;45.192;5.722;2022-08-19T03:46:19;1.82;;;1.50;;
13222;SDS011;6676;45.192;5.722;2022-08-19T03:49:12;2.12;;;1.40;;
13222;SDS011;6676;45.192;5.722;2022-08-19T03:54:45;1.62;;;1.35;;
13222;SDS011;6676;45.192;5.722;2022-08-19T03:57:37;3.20;;;1.60;;
13222;SDS011;6676;45.192;5.722;2022-08-19T04:00:28;2.72;;;1.70;;
13222;SDS011;6676;45.192;5.722;2022-08-19T04:03:27;1.62;;;1.50;;
13222;SDS011;6676;45.192;5.722;2022-08-19T04:06:19;4.92;;;1.50;;
13222;SDS011;6676;45.192;5.722;2022-08-19T04:09:11;2.27;;;1.22;;
13222;SDS011;6676;45.192;5.722;2022-08-19T04:12:04;1.57;;;1.47;;
13222;SDS011;6676;45.192;5.722;2022-08-19T04:14:56;1.80;;;1.40;;
13222;SDS011;6676;45.192;5.722;2022-08-19T04:17:48;2.20;;;1.50;;
13222;SDS011;6676;45.192;5.722;2022-08-19T04:20:40;1.85;;;1.60;;
13222;SDS011;6676;45.192;5.722;2022-08-19T04:23:33;1.50;;;1.40;;
13222;SDS011;6676;45.192;5.722;2022-08-19T04:26:27;2.35;;;1.80;;
13222;SDS011;6676;45.192;5.722;2022-08-19T04:29:27;1.82;;;1.67;;
13222;SDS011;6676;45.192;5.722;2022-08-19T04:32:18;1.40;;;1.30;;
13222;SDS011;6676;45.192;5.722;2022-08-19T04:35:11;2.12;;;1.10;;
13222;SDS011;6676;45.192;5.722;2022-08-19T04:38:03;1.45;;;1.17;;
13222;SDS011;6676;45.192;5.722;2022-08-19T04:40:55;1.60;;;1.30;;
13222;SDS011;6676;45.192;5.722;2022-08-19T04:44:04;2.22;;;1.20;;
13222;SDS011;6676;45.192;5.722;2022-08-19T04:46:55;1.20;;;1.10;;
13222;SDS011;6676;45.192;5.722;2022-08-19T04:49:48;1.62;;;1.35;;
13222;SDS011;6676;45.192;5.722;2022-08-19T04:52:39;1.90;;;1.30;;
13222;SDS011;6676;45.192;5.722;2022-08-19T04:55:31;1.62;;;1.50;;
13222;SDS011;6676;45.192;5.722;2022-08-19T04:58:25;2.00;;;1.80;;
13222;SDS011;6676;45.192;5.722;2022-08-19T05:01:18;2.85;;;1.62;;
13222;SDS011;6676;45.192;5.722;2022-08-19T05:04:10;1.35;;;1.25;;
13222;SDS011;6676;45.192;5.722;2022-08-19T05:07:02;1.60;;;1.40;;
13222;SDS011;6676;45.192;5.722;2022-08-19T05:09:53;2.08;;;1.62;;
13222;SDS011;6676;45.192;5.722;2022-08-19T05:12:46;2.00;;;1.70;;
13222;SDS011;6676;45.192;5.722;2022-08-19T05:15:31;1.45;;;1.35;;
13222;SDS011;6676;45.192;5.722;2022-08-19T05:21:07;1.65;;;1.45;;
13222;SDS011;6676;45.192;5.722;2022-08-19T05:24:18;2.92;;;1.70;;
13222;SDS011;6676;45.192;5.722;2022-08-19T05:27:11;1.72;;;1.52;;
13222;SDS011;6676;45.192;5.722;2022-08-19T05:32:48;1.75;;;1.57;;
13222;SDS011;6676;45.192;5.722;2022-08-19T05:35:53;1.40;;;1.30;;
13222;SDS011;6676;45.192;5.722;2022-08-19T05:38:33;2.98;;;1.72;;
13222;SDS011;6676;45.192;5.722;2022-08-19T05:41:25;2.30;;;2.10;;
13222;SDS011;6676;45.192;5.722;2022-08-19T05:44:17;1.70;;;1.60;;
13222;SDS011;6676;45.192;5.722;2022-08-19T05:47:10;1.80;;;1.70;;
13222;SDS011;6676;45.192;5.722;2022-08-19T05:50:03;2.52;;;1.90;;
13222;SDS011;6676;45.192;5.722;2022-08-19T05:52:55;2.40;;;1.47;;
13222;SDS011;6676;45.192;5.722;2022-08-19T05:55:47;1.50;;;1.40;;
13222;SDS011;6676;45.192;5.722;2022-08-19T05:58:39;1.42;;;1.30;;
13222;SDS011;6676;45.192;5.722;2022-08-19T06:01:30;2.17;;;1.62;;
13222;SDS011;6676;45.192;5.722;2022-08-19T06:04:15;3.05;;;1.70;;
13222;SDS011;6676;45.192;5.722;2022-08-19T06:07:07;1.45;;;1.35;;
13222;SDS011;6676;45.192;5.722;2022-08-19T06:12:44;1.50;;;1.10;;
13222;SDS011;6676;45.192;5.722;2022-08-19T06:15:35;1.60;;;1.50;;
13222;SDS011;6676;45.192;5.722;2022-08-19T06:18:27;1.45;;;1.10;;
13222;SDS011;6676;45.192;5.722;2022-08-19T06:21:26;1.17;;;0.90;;
13222;SDS011;6676;45.192;5.722;2022-08-19T06:24:19;1.00;;;0.90;;
13222;SDS011;6676;45.192;5.722;2022-08-19T06:29:52;1.60;;;1.20;;
13222;SDS011;6676;45.192;5.722;2022-08-19T06:35:23;2.25;;;1.60;;
13222;SDS011;6676;45.192;5.722;2022-08-19T06:38:15;1.87;;;1.40;;
13222;SDS011;6676;45.192;5.722;2022-08-19T06:41:08;1.77;;;1.20;;
13222;SDS011;6676;45.192;5.722;2022-08-19T06:43:48;1.20;;;1.10;;
13222;SDS011;6676;45.192;5.722;2022-08-19T06:46:41;1.62;;;1.37;;
13222;SDS011;6676;45.192;5.722;2022-08-19T06:49:35;1.40;;;1.30;;
13222;SDS011;6676;45.192;5.722;2022-08-19T06:52:27;2.27;;;1.60;;
13222;SDS011;6676;45.192;5.722;2022-08-19T06:55:20;1.50;;;1.15;;
13222;SDS011;6676;45.192;5.722;2022-08-19T06:58:11;2.45;;;1.65;;
13222;SDS011;6676;45.192;5.722;2022-08-19T07:00:52;2.42;;;1.75;;
13222;SDS011;6676;45.192;5.722;2022-08-19T07:03:44;2.20;;;2.00;;
13222;SDS011;6676;45.192;5.722;2022-08-19T07:06:37;2.52;;;1.65;;
13222;SDS011;6676;45.192;5.722;2022-08-19T07:09:31;2.50;;;2.20;;
13222;SDS011;6676;45.192;5.722;2022-08-19T07:12:25;3.15;;;2.55;;
13222;SDS011;6676;45.192;5.722;2022-08-19T07:17:59;3.20;;;2.30;;
13222;SDS011;6676;45.192;5.722;2022-08-19T07:23:58;2.47;;;2.27;;
13222;SDS011;6676;45.192;5.722;2022-08-19T07:26:52;2.87;;;2.47;;
13222;SDS011;6676;45.192;5.722;2022-08-19T07:29:47;4.08;;;2.70;;
13222;SDS011;6676;45.192;5.722;2022-08-19T07:32:40;3.00;;;2.30;;
13222;SDS011;6676;45.192;5.722;2022-08-19T07:35:31;2.92;;;1.95;;
13222;SDS011;6676;45.192;5.722;2022-08-19T07:41:02;2.00;;;1.80;;
13222;SDS011;6676;45.192;5.722;2022-08-19T07:43:53;3.25;;;2.30;;
13222;SDS011;6676;45.192;5.722;2022-08-19T07:46:45;2.25;;;1.90;;
13222;SDS011;6676;45.192;5.722;2022-08-19T07:53:03;2.67;;;1.90;;
13222;SDS011;6676;45.192;5.722;2022-08-19T07:55:54;3.15;;;1.67;;
13222;SDS011;6676;45.192;5.722;2022-08-19T07:58:49;2.45;;;1.70;;
13222;SDS011;6676;45.192;5.722;2022-08-19T08:01:40;3.47;;;1.95;;
13222;SDS011;6676;45.192;5.722;2022-08-19T08:04:32;2.02;;;1.40;;
13222;SDS011;6676;45.192;5.722;2022-08-19T08:07:48;1.70;;;1.60;;
13222;SDS011;6676;45.192;5.722;2022-08-19T08:11:00;2.62;;;1.47;;
13222;SDS011;6676;45.192;5.722;2022-08-19T08:13:53;1.62;;;1.40;;
13222;SDS011;6676;45.192;5.722;2022-08-19T08:16:46;1.45;;;1.35;;
13222;SDS011;6676;45.192;5.722;2022-08-19T08:19:38;2.02;;;1.55;;
13222;SDS011;6676;45.192;5.722;2022-08-19T08:22:30;2.83;;;2.02;;
13222;SDS011;6676;45.192;5.722;2022-08-19T08:25:41;1.98;;;1.75;;
13222;SDS011;6676;45.192;5.722;2022-08-19T08:28:34;2.42;;;1.90;;
13222;SDS011;6676;45.192;5.722;2022-08-19T08:31:37;1.90;;;1.50;;
13222;SDS011;6676;45.192;5.722;2022-08-19T08:34:29;3.15;;;1.50;;
13222;SDS011;6676;45.192;5.722;2022-08-19T08:37:20;1.57;;;1.47;;
13222;SDS011;6676;45.192;5.722;2022-08-19T08:40:16;2.55;;;1.50;;
13222;SDS011;6676;45.192;5.722;2022-08-19T08:42:57;2.10;;;1.27;;
13222;SDS011;6676;45.192;5.722;2022-08-19T08:48:35;2.95;;;1.57;;
13222;SDS011;6676;45.192;5.722;2022-08-19T08:51:40;1.60;;;1.47;;
13222;SDS011;6676;45.192;5.722;2022-08-19T08:54:24;1.65;;;1.55;;
13222;SDS011;6676;45.192;5.722;2022-08-19T09:03:14;2.30;;;1.87;;
13222;SDS011;6676;45.192;5.722;2022-08-19T09:09:14;2.30;;;2.10;;
13222;SDS011;6676;45.192;5.722;2022-08-19T09:12:08;2.02;;;1.82;;
13222;SDS011;6676;45.192;5.722;2022-08-19T09:17:42;1.60;;;1.50;;
13222;SDS011;6676;45.192;5.722;2022-08-19T09:20:47;1.90;;;1.77;;
13222;SDS011;6676;45.192;5.722;2022-08-19T09:23:45;1.92;;;1.72;;
13222;SDS011;6676;45.192;5.722;2022-08-19T09:26:39;2.95;;;2.25;;
13222;SDS011;6676;45.192;5.722;2022-08-19T09:29:33;1.85;;;1.75;;
13222;SDS011;6676;45.192;5.722;2022-08-19T09:32:26;3.30;;;2.30;;
13222;SDS011;6676;45.192;5.722;2022-08-19T09:35:19;1.90;;;1.80;;
13222;SDS011;6676;45.192;5.722;2022-08-19T09:38:11;2.50;;;2.10;;
13222;SDS011;6676;45.192;5.722;2022-08-19T09:43:43;2.25;;;2.05;;
13222;SDS011;6676;45.192;5.722;2022-08-19T09:46:43;2.10;;;1.90;;
13222;SDS011;6676;45.192;5.722;2022-08-19T09:49:35;2.10;;;1.98;;
13222;SDS011;6676;45.192;5.722;2022-08-19T09:52:27;2.52;;;2.33;;
13222;SDS011;6676;45.192;5.722;2022-08-19T09:58:03;2.00;;;1.80;;
13222;SDS011;6676;45.192;5.722;2022-08-19T10:00:56;2.17;;;1.98;;
13222;SDS011;6676;45.192;5.722;2022-08-19T10:04:15;2.25;;;2.05;;
13222;SDS011;6676;45.192;5.722;2022-08-19T10:07:10;5.08;;;2.00;;
13222;SDS011;6676;45.192;5.722;2022-08-19T10:10:02;2.20;;;2.00;;
13222;SDS011;6676;45.192;5.722;2022-08-19T10:12:42;2.00;;;1.90;;
13222;SDS011;6676;45.192;5.722;2022-08-19T10:15:42;2.37;;;2.17;;
13222;SDS011;6676;45.192;5.722;2022-08-19T10:18:35;2.20;;;2.00;;
13222;SDS011;6676;45.192;5.722;2022-08-19T10:21:29;2.27;;;2.17;;
13222;SDS011;6676;45.192;5.722;2022-08-19T10:24:15;2.27;;;2.05;;
13222;SDS011;6676;45.192;5.722;2022-08-19T10:27:08;4.22;;;2.60;;
13222;SDS011;6676;45.192;5.722;2022-08-19T10:30:09;2.55;;;2.10;;
13222;SDS011;6676;45.192;5.722;2022-08-19T10:32:50;2.77;;;2.58;;
13222;SDS011;6676;45.192;5.722;2022-08-19T10:35:47;2.20;;;2.10;;
13222;SDS011;6676;45.192;5.722;2022-08-19T10:38:43;2.50;;;2.30;;
13222;SDS011;6676;45.192;5.722;2022-08-19T10:41:38;2.45;;;2.25;;
13222;SDS011;6676;45.192;5.722;2022-08-19T10:44:34;2.70;;;2.50;;
13222;SDS011;6676;45.192;5.722;2022-08-19T10:47:30;2.70;;;2.50;;
13222;SDS011;6676;45.192;5.722;2022-08-19T10:50:30;2.42;;;2.22;;
13222;SDS011;6676;45.192;5.722;2022-08-19T10:53:40;2.90;;;2.70;;
13222;SDS011;6676;45.192;5.722;2022-08-19T10:56:32;2.87;;;2.67;;
13222;SDS011;6676;45.192;5.722;2022-08-19T10:59:48;2.90;;;2.70;;
13222;SDS011;6676;45.192;5.722;2022-08-19T11:02:47;3.15;;;2.95;;
13222;SDS011;6676;45.192;5.722;2022-08-19T11:05:53;2.62;;;2.42;;
13222;SDS011;6676;45.192;5.722;2022-08-19T11:08:54;3.15;;;2.95;;
13222;SDS011;6676;45.192;5.722;2022-08-19T11:14:42;2.87;;;2.67;;
13222;SDS011;6676;45.192;5.722;2022-08-19T11:17:34;3.65;;;2.92;;
13222;SDS011;6676;45.192;5.722;2022-08-19T11:20:27;3.10;;;2.85;;
13222;SDS011;6676;45.192;5.722;2022-08-19T11:23:08;2.90;;;2.70;;
13222;SDS011;6676;45.192;5.722;2022-08-19T11:26:03;3.50;;;3.20;;
13222;SDS011;6676;45.192;5.722;2022-08-19T11:28:55;3.80;;;3.40;;
13222;SDS011;6676;45.192;5.722;2022-08-19T11:31:57;3.15;;;2.85;;
13222;SDS011;6676;45.192;5.722;2022-08-19T11:34:49;3.20;;;3.00;;
13222;SDS011;6676;45.192;5.722;2022-08-19T11:37:52;3.58;;;2.83;;
13222;SDS011;6676;45.192;5.722;2022-08-19T11:40:53;3.20;;;2.90;;
13222;SDS011;6676;45.192;5.722;2022-08-19T11:43:44;3.08;;;2.80;;
13222;SDS011;6676;45.192;5.722;2022-08-19T11:46:37;3.00;;;2.77;;
13222;SDS011;6676;45.192;5.722;2022-08-19T11:49:24;3.37;;;3.08;;
13222;SDS011;6676;45.192;5.722;2022-08-19T11:52:15;3.22;;;2.92;;
13222;SDS011;6676;45.192;5.722;2022-08-19T11:54:55;3.10;;;2.80;;
13222;SDS011;6676;45.192;5.722;2022-08-19T11:57:46;3.50;;;3.20;;
13222;SDS011;6676;45.192;5.722;2022-08-19T12:03:18;3.95;;;3.20;;
13222;SDS011;6676;45.192;5.722;2022-08-19T12:08:51;3.47;;;3.22;;
13222;SDS011;6676;45.192;5.722;2022-08-19T12:11:43;3.55;;;3.25;;
13222;SDS011;6676;45.192;5.722;2022-08-19T12:14:35;3.90;;;3.33;;
13222;SDS011;6676;45.192;5.722;2022-08-19T12:17:28;3.50;;;3.20;;
13222;SDS011;6676;45.192;5.722;2022-08-19T12:20:22;3.75;;;3.42;;
13222;SDS011;6676;45.192;5.722;2022-08-19T12:23:02;4.17;;;3.37;;
13222;SDS011;6676;45.192;5.722;2022-08-19T12:25:56;3.75;;;3.45;;
13222;SDS011;6676;45.192;5.722;2022-08-19T12:28:37;3.95;;;3.65;;
13222;SDS011;6676;45.192;5.722;2022-08-19T12:31:29;3.98;;;3.40;;
13222;SDS011;6676;45.192;5.722;2022-08-19T12:34:10;4.17;;;3.83;;
13222;SDS011;6676;45.192;5.722;2022-08-19T12:37:03;3.98;;;3.58;;
13222;SDS011;6676;45.192;5.722;2022-08-19T12:39:56;5.22;;;4.20;;
13222;SDS011;6676;45.192;5.722;2022-08-19T12:42:48;4.12;;;3.72;;
13222;SDS011;6676;45.192;5.722;2022-08-19T12:45:39;4.35;;;3.95;;
13222;SDS011;6676;45.192;5.722;2022-08-19T12:48:33;4.28;;;3.75;;
13222;SDS011;6676;45.192;5.722;2022-08-19T12:51:27;4.17;;;3.77;;
13222;SDS011;6676;45.192;5.722;2022-08-19T12:54:19;4.17;;;3.30;;
13222;SDS011;6676;45.192;5.722;2022-08-19T12:57:11;3.40;;;3.20;;
13222;SDS011;6676;45.192;5.722;2022-08-19T13:02:44;4.17;;;3.87;;
13222;SDS011;6676;45.192;5.722;2022-08-19T13:05:37;5.65;;;5.15;;
13222;SDS011;6676;45.192;5.722;2022-08-19T13:08:18;6.95;;;6.25;;
13222;SDS011;6676;45.192;5.722;2022-08-19T13:13:51;8.08;;;7.28;;
13222;SDS011;6676;45.192;5.722;2022-08-19T13:16:44;6.78;;;6.08;;
13222;SDS011;6676;45.192;5.722;2022-08-19T13:19:36;6.37;;;5.78;;
13222;SDS011;6676;45.192;5.722;2022-08-19T13:22:28;8.63;;;7.80;;
13222;SDS011;6676;45.192;5.722;2022-08-19T13:25:20;9.03;;;7.85;;
13222;SDS011;6676;45.192;5.722;2022-08-19T13:28:12;9.15;;;8.25;;
13222;SDS011;6676;45.192;5.722;2022-08-19T13:33:41;8.85;;;8.00;;
13222;SDS011;6676;45.192;5.722;2022-08-19T13:36:33;10.53;;;8.90;;
13222;SDS011;6676;45.192;5.722;2022-08-19T13:39:26;9.38;;;8.40;;
13222;SDS011;6676;45.192;5.722;2022-08-19T13:42:17;11.65;;;8.68;;
13222;SDS011;6676;45.192;5.722;2022-08-19T13:45:09;9.50;;;8.60;;
13222;SDS011;6676;45.192;5.722;2022-08-19T13:48:02;9.53;;;8.63;;
13222;SDS011;6676;45.192;5.722;2022-08-19T13:50:56;9.30;;;8.40;;
13222;SDS011;6676;45.192;5.722;2022-08-19T13:56:27;11.00;;;9.08;;
13222;SDS011;6676;45.192;5.722;2022-08-19T13:59:33;11.28;;;10.08;;
13222;SDS011;6676;45.192;5.722;2022-08-19T14:02:25;10.65;;;9.55;;
13222;SDS011;6676;45.192;5.722;2022-08-19T14:05:16;11.68;;;10.15;;
13222;SDS011;6676;45.192;5.722;2022-08-19T14:08:11;10.63;;;9.55;;
13222;SDS011;6676;45.192;5.722;2022-08-19T14:13:41;9.83;;;8.90;;
13222;SDS011;6676;45.192;5.722;2022-08-19T14:16:32;9.03;;;8.05;;
13222;SDS011;6676;45.192;5.722;2022-08-19T14:19:31;9.10;;;8.30;;
13222;SDS011;6676;45.192;5.722;2022-08-19T14:22:24;10.08;;;9.08;;
13222;SDS011;6676;45.192;5.722;2022-08-19T14:25:18;9.78;;;8.78;;
13222;SDS011;6676;45.192;5.722;2022-08-19T14:28:14;9.58;;;8.65;;
13222;SDS011;6676;45.192;5.722;2022-08-19T14:31:06;9.75;;;8.53;;
13222;SDS011;6676;45.192;5.722;2022-08-19T14:33:57;9.50;;;8.53;;
13222;SDS011;6676;45.192;5.722;2022-08-19T14:36:49;9.70;;;8.80;;
13222;SDS011;6676;45.192;5.722;2022-08-19T14:39:41;9.20;;;8.30;;
13222;SDS011;6676;45.192;5.722;2022-08-19T14:42:32;8.65;;;7.78;;
13222;SDS011;6676;45.192;5.722;2022-08-19T14:45:29;9.75;;;8.30;;
13222;SDS011;6676;45.192;5.722;2022-08-19T14:48:11;9.40;;;7.78;;
13222;SDS011;6676;45.192;5.722;2022-08-19T14:51:04;9.00;;;8.13;;
13222;SDS011;6676;45.192;5.722;2022-08-19T14:53:45;9.15;;;7.85;;
13222;SDS011;6676;45.192;5.722;2022-08-19T14:56:41;8.40;;;7.60;;
13222;SDS011;6676;45.192;5.722;2022-08-19T14:59:34;7.22;;;6.53;;
13222;SDS011;6676;45.192;5.722;2022-08-19T15:02:14;7.42;;;6.72;;
13222;SDS011;6676;45.192;5.722;2022-08-19T15:07:49;6.87;;;6.30;;
13222;SDS011;6676;45.192;5.722;2022-08-19T15:10:40;7.47;;;6.65;;
13222;SDS011;6676;45.192;5.722;2022-08-19T15:26:33;9.35;;;8.45;;
13222;SDS011;6676;45.192;5.722;2022-08-19T15:29:24;8.18;;;7.37;;
13222;SDS011;6676;45.192;5.722;2022-08-19T15:32:17;7.72;;;6.92;;
13222;SDS011;6676;45.192;5.722;2022-08-19T15:35:12;8.10;;;7.37;;
13222;SDS011;6676;45.192;5.722;2022-08-19T15:38:03;7.95;;;7.20;;
13222;SDS011;6676;45.192;5.722;2022-08-19T15:40:56;7.53;;;6.70;;
13222;SDS011;6676;45.192;5.722;2022-08-19T15:43:52;6.97;;;6.37;;
13222;SDS011;6676;45.192;5.722;2022-08-19T15:46:46;7.53;;;6.70;;
13222;SDS011;6676;45.192;5.722;2022-08-19T15:49:46;6.78;;;6.17;;
13222;SDS011;6676;45.192;5.722;2022-08-19T15:52:37;9.33;;;6.15;;
13222;SDS011;6676;45.192;5.722;2022-08-19T15:55:44;7.47;;;6.78;;
13222;SDS011;6676;45.192;5.722;2022-08-19T15:58:38;5.92;;;5.42;;
13222;SDS011;6676;45.192;5.722;2022-08-19T16:01:55;5.50;;;5.00;;
13222;SDS011;6676;45.192;5.722;2022-08-19T16:05:06;5.75;;;4.40;;
13222;SDS011;6676;45.192;5.722;2022-08-19T16:08:18;5.08;;;4.25;;
13222;SDS011;6676;45.192;5.722;2022-08-19T16:13:49;4.90;;;4.40;;
13222;SDS011;6676;45.192;5.722;2022-08-19T16:16:46;6.00;;;4.20;;
13222;SDS011;6676;45.192;5.722;2022-08-19T16:19:38;4.67;;;4.35;;
13222;SDS011;6676;45.192;5.722;2022-08-19T16:22:29;5.55;;;4.40;;
13222;SDS011;6676;45.192;5.722;2022-08-19T16:25:31;5.70;;;5.20;;
13222;SDS011;6676;45.192;5.722;2022-08-19T16:28:24;6.33;;;5.72;;
13222;SDS011;6676;45.192;5.722;2022-08-19T16:31:05;6.85;;;5.58;;
13222;SDS011;6676;45.192;5.722;2022-08-19T16:33:57;7.92;;;5.85;;
13222;SDS011;6676;45.192;5.722;2022-08-19T16:36:49;6.65;;;6.03;;
13222;SDS011;6676;45.192;5.722;2022-08-19T16:39:41;6.10;;;5.60;;
13222;SDS011;6676;45.192;5.722;2022-08-19T16:42:34;6.15;;;5.58;;
13222;SDS011;6676;45.192;5.722;2022-08-19T16:48:31;5.90;;;5.40;;
13222;SDS011;6676;45.192;5.722;2022-08-19T16:51:33;6.55;;;5.95;;
13222;SDS011;6676;45.192;5.722;2022-08-19T16:54:48;5.95;;;5.45;;
13222;SDS011;6676;45.192;5.722;2022-08-19T16:57:43;6.33;;;5.83;;
13222;SDS011;6676;45.192;5.722;2022-08-19T17:00:50;6.20;;;5.70;;
13222;SDS011;6676;45.192;5.722;2022-08-19T17:03:42;6.30;;;5.80;;
13222;SDS011;6676;45.192;5.722;2022-08-19T17:06:37;6.25;;;5.65;;
13222;SDS011;6676;45.192;5.722;2022-08-19T17:09:29;6.30;;;5.80;;
13222;SDS011;6676;45.192;5.722;2022-08-19T17:12:21;6.28;;;5.75;;
13222;SDS011;6676;45.192;5.722;2022-08-19T17:17:58;6.65;;;6.05;;
13222;SDS011;6676;45.192;5.722;2022-08-19T17:20:51;6.45;;;5.85;;
13222;SDS011;6676;45.192;5.722;2022-08-19T17:23:44;6.00;;;5.50;;
13222;SDS011;6676;45.192;5.722;2022-08-19T17:43:23;6.40;;;5.80;;
13222;SDS011;6676;45.192;5.722;2022-08-19T17:48:58;6.35;;;5.75;;
13222;SDS011;6676;45.192;5.722;2022-08-19T17:51:50;6.97;;;6.37;;
13222;SDS011;6676;45.192;5.722;2022-08-19T17:54:42;6.78;;;6.17;;
13222;SDS011;6676;45.192;5.722;2022-08-19T17:57:33;9.35;;;6.15;;
13222;SDS011;6676;45.192;5.722;2022-08-19T18:03:06;8.65;;;6.42;;
13222;SDS011;6676;45.192;5.722;2022-08-19T18:05:59;6.65;;;5.95;;
13222;SDS011;6676;45.192;5.722;2022-08-19T18:08:56;6.08;;;5.47;;
13222;SDS011;6676;45.192;5.722;2022-08-19T18:11:47;5.60;;;5.10;;
13222;SDS011;6676;45.192;5.722;2022-08-19T18:14:40;5.75;;;5.25;;
13222;SDS011;6676;45.192;5.722;2022-08-19T18:17:32;6.12;;;5.58;;
13222;SDS011;6676;45.192;5.722;2022-08-19T18:20:24;6.12;;;5.15;;
13222;SDS011;6676;45.192;5.722;2022-08-19T18:23:16;5.78;;;5.10;;
13222;SDS011;6676;45.192;5.722;2022-08-19T18:26:08;5.55;;;5.00;;
13222;SDS011;6676;45.192;5.722;2022-08-19T18:29:00;5.55;;;5.08;;
13222;SDS011;6676;45.192;5.722;2022-08-19T18:31:51;6.30;;;5.55;;
13222;SDS011;6676;45.192;5.722;2022-08-19T18:34:44;6.35;;;5.40;;
13222;SDS011;6676;45.192;5.722;2022-08-19T18:37:36;5.37;;;4.67;;
13222;SDS011;6676;45.192;5.722;2022-08-19T18:40:28;5.00;;;4.55;;
13222;SDS011;6676;45.192;5.722;2022-08-19T18:43:37;6.00;;;5.40;;
13222;SDS011;6676;45.192;5.722;2022-08-19T18:46:46;5.60;;;4.87;;
13222;SDS011;6676;45.192;5.722;2022-08-19T18:49:55;5.95;;;5.35;;
13222;SDS011;6676;45.192;5.722;2022-08-19T18:52:37;5.67;;;5.17;;
13222;SDS011;6676;45.192;5.722;2022-08-19T18:55:28;6.17;;;5.45;;
13222;SDS011;6676;45.192;5.722;2022-08-19T18:58:19;5.75;;;4.90;;
13222;SDS011;6676;45.192;5.722;2022-08-19T19:01:14;4.87;;;4.42;;
13222;SDS011;6676;45.192;5.722;2022-08-19T19:03:54;6.08;;;5.00;;
13222;SDS011;6676;45.192;5.722;2022-08-19T19:06:56;5.75;;;4.97;;
13222;SDS011;6676;45.192;5.722;2022-08-19T19:10:05;6.58;;;5.22;;
13222;SDS011;6676;45.192;5.722;2022-08-19T19:12:57;9.40;;;5.87;;
13222;SDS011;6676;45.192;5.722;2022-08-19T19:15:49;5.50;;;5.00;;
13222;SDS011;6676;45.192;5.722;2022-08-19T19:18:42;6.05;;;5.53;;
13222;SDS011;6676;45.192;5.722;2022-08-19T19:21:37;5.95;;;5.15;;
13222;SDS011;6676;45.192;5.722;2022-08-19T19:27:16;4.60;;;4.20;;
13222;SDS011;6676;45.192;5.722;2022-08-19T19:30:09;6.45;;;5.83;;
13222;SDS011;6676;45.192;5.722;2022-08-19T19:33:01;6.33;;;5.42;;
13222;SDS011;6676;45.192;5.722;2022-08-19T19:35:52;9.23;;;6.65;;
13222;SDS011;6676;45.192;5.722;2022-08-19T19:38:43;8.85;;;6.40;;
13222;SDS011;6676;45.192;5.722;2022-08-19T19:41:36;8.10;;;6.30;;
13222;SDS011;6676;45.192;5.722;2022-08-19T19:44:30;6.67;;;5.72;;
13222;SDS011;6676;45.192;5.722;2022-08-19T19:47:25;7.03;;;6.33;;
13222;SDS011;6676;45.192;5.722;2022-08-19T19:50:17;5.95;;;5.45;;
13222;SDS011;6676;45.192;5.722;2022-08-19T19:53:10;8.03;;;5.12;;
13222;SDS011;6676;45.192;5.722;2022-08-19T19:56:03;9.33;;;5.72;;